sensor_id;sensor_type;location;lat;lon;timestamp;temperature;humidity
23556;DHT22;11956;53.184;8.578;2022-07-23T00:00:37;15.70;99.90
23556;DHT22;11956;53.184;8.578;2022-07-23T00:03:37;15.80;99.90
23556;DHT22;11956;53.184;8.578;2022-07-23T00:06:38;15.80;99.90
23556;DHT22;11956;53.184;8.578;2022-07-23T00:09:39;15.80;99.90
23556;DHT22;11956;53.184;8.578;2022-07-23T00:12:40;15.80;99.90
23556;DHT22;11956;53.184;8.578;2022-07-23T00:15:41;15.70;99.90
23556;DHT22;11956;53.184;8.578;2022-07-23T00:18:42;15.60;99.90
23556;DHT22;11956;53.184;8.578;2022-07-23T00:21:43;15.60;99.90
23556;DHT22;11956;53.184;8.578;2022-07-23T00:24:44;15.50;99.90
23556;DHT22;11956;53.184;8.578;2022-07-23T00:27:44;15.40;99.90
23556;DHT22;11956;53.184;8.578;2022-07-23T00:30:45;15.50;99.90
23556;DHT22;11956;53.184;8.578;2022-07-23T00:33:46;15.50;99.90
23556;DHT22;11956;53.184;8.578;2022-07-23T00:36:47;15.50;99.90
23556;DHT22;11956;53.184;8.578;2022-07-23T00:39:48;15.60;99.90
23556;DHT22;11956;53.184;8.578;2022-07-23T00:42:49;15.60;99.90
23556;DHT22;11956;53.184;8.578;2022-07-23T00:45:49;15.50;99.90
23556;DHT22;11956;53.184;8.578;2022-07-23T00:48:50;15.50;99.90
23556;DHT22;11956;53.184;8.578;2022-07-23T00:51:52;15.60;99.90
23556;DHT22;11956;53.184;8.578;2022-07-23T00:54:53;15.60;99.90
23556;DHT22;11956;53.184;8.578;2022-07-23T00:57:55;15.60;99.90
23556;DHT22;11956;53.184;8.578;2022-07-23T01:00:56;15.60;99.90
23556;DHT22;11956;53.184;8.578;2022-07-23T01:03:57;15.60;99.90
23556;DHT22;11956;53.184;8.578;2022-07-23T01:06:58;15.60;99.90
23556;DHT22;11956;53.184;8.578;2022-07-23T01:10:00;15.60;99.90
23556;DHT22;11956;53.184;8.578;2022-07-23T01:13:07;15.60;99.90
23556;DHT22;11956;53.184;8.578;2022-07-23T01:16:10;15.70;99.90
23556;DHT22;11956;53.184;8.578;2022-07-23T01:19:12;15.70;99.90
23556;DHT22;11956;53.184;8.578;2022-07-23T01:22:15;15.70;99.90
23556;DHT22;11956;53.184;8.578;2022-07-23T01:25:20;15.70;99.90
23556;DHT22;11956;53.184;8.578;2022-07-23T01:28:29;15.70;99.90
23556;DHT22;11956;53.184;8.578;2022-07-23T01:31:32;15.60;99.90
23556;DHT22;11956;53.184;8.578;2022-07-23T01:34:33;15.60;99.90
23556;DHT22;11956;53.184;8.578;2022-07-23T01:37:34;15.60;99.90
23556;DHT22;11956;53.184;8.578;2022-07-23T01:40:35;15.70;99.90
23556;DHT22;11956;53.184;8.578;2022-07-23T01:43:36;15.70;99.90
23556;DHT22;11956;53.184;8.578;2022-07-23T01:46:38;15.70;99.90
23556;DHT22;11956;53.184;8.578;2022-07-23T01:49:40;15.60;99.90
23556;DHT22;11956;53.184;8.578;2022-07-23T01:52:59;15.70;99.90
23556;DHT22;11956;53.184;8.578;2022-07-23T01:56:00;15.70;99.90
23556;DHT22;11956;53.184;8.578;2022-07-23T01:59:01;15.60;99.90
23556;DHT22;11956;53.184;8.578;2022-07-23T02:02:03;15.60;99.90
23556;DHT22;11956;53.184;8.578;2022-07-23T02:05:05;15.60;99.90
23556;DHT22;11956;53.184;8.578;2022-07-23T02:08:07;15.70;99.90
23556;DHT22;11956;53.184;8.578;2022-07-23T02:11:10;15.70;99.90
23556;DHT22;11956;53.184;8.578;2022-07-23T02:14:11;15.70;99.90
23556;DHT22;11956;53.184;8.578;2022-07-23T02:17:12;15.70;99.90
23556;DHT22;11956;53.184;8.578;2022-07-23T02:20:13;15.80;99.90
23556;DHT22;11956;53.184;8.578;2022-07-23T02:23:17;15.70;99.90
23556;DHT22;11956;53.184;8.578;2022-07-23T02:26:18;15.70;99.90
23556;DHT22;11956;53.184;8.578;2022-07-23T02:29:20;15.70;99.90
23556;DHT22;11956;53.184;8.578;2022-07-23T02:32:21;15.70;99.90
23556;DHT22;11956;53.184;8.578;2022-07-23T02:35:22;15.70;99.90
23556;DHT22;11956;53.184;8.578;2022-07-23T02:38:23;15.70;99.90
23556;DHT22;11956;53.184;8.578;2022-07-23T02:41:24;15.60;99.90
23556;DHT22;11956;53.184;8.578;2022-07-23T02:44:25;15.60;99.90
23556;DHT22;11956;53.184;8.578;2022-07-23T02:47:28;15.60;99.90
23556;DHT22;11956;53.184;8.578;2022-07-23T02:50:30;15.60;99.90
23556;DHT22;11956;53.184;8.578;2022-07-23T02:53:33;15.60;99.90
23556;DHT22;11956;53.184;8.578;2022-07-23T02:56:34;15.60;99.90
23556;DHT22;11956;53.184;8.578;2022-07-23T02:59:35;15.60;99.90
23556;DHT22;11956;53.184;8.578;2022-07-23T03:02:36;15.50;99.90
23556;DHT22;11956;53.184;8.578;2022-07-23T03:05:37;15.60;99.90
23556;DHT22;11956;53.184;8.578;2022-07-23T03:08:39;15.60;99.90
23556;DHT22;11956;53.184;8.578;2022-07-23T03:11:40;15.60;99.90
23556;DHT22;11956;53.184;8.578;2022-07-23T03:14:41;15.60;99.90
23556;DHT22;11956;53.184;8.578;2022-07-23T03:17:42;15.70;99.90
23556;DHT22;11956;53.184;8.578;2022-07-23T03:20:43;15.70;99.90
23556;DHT22;11956;53.184;8.578;2022-07-23T03:23:45;15.60;99.90
23556;DHT22;11956;53.184;8.578;2022-07-23T03:26:46;15.50;99.90
23556;DHT22;11956;53.184;8.578;2022-07-23T03:29:47;15.40;99.90
23556;DHT22;11956;53.184;8.578;2022-07-23T03:32:48;15.40;99.90
23556;DHT22;11956;53.184;8.578;2022-07-23T03:35:50;15.40;99.90
23556;DHT22;11956;53.184;8.578;2022-07-23T03:38:58;15.50;99.90
23556;DHT22;11956;53.184;8.578;2022-07-23T03:41:59;15.50;99.90
23556;DHT22;11956;53.184;8.578;2022-07-23T03:45:00;15.50;99.90
23556;DHT22;11956;53.184;8.578;2022-07-23T03:48:02;15.50;99.90
23556;DHT22;11956;53.184;8.578;2022-07-23T03:51:04;15.40;99.90
23556;DHT22;11956;53.184;8.578;2022-07-23T03:54:05;15.50;99.90
23556;DHT22;11956;53.184;8.578;2022-07-23T03:57:06;15.50;99.90
23556;DHT22;11956;53.184;8.578;2022-07-23T04:00:08;15.50;99.90
23556;DHT22;11956;53.184;8.578;2022-07-23T04:03:14;15.60;99.90
23556;DHT22;11956;53.184;8.578;2022-07-23T04:06:16;15.50;99.90
23556;DHT22;11956;53.184;8.578;2022-07-23T04:09:17;15.50;99.90
23556;DHT22;11956;53.184;8.578;2022-07-23T04:12:18;15.50;99.90
23556;DHT22;11956;53.184;8.578;2022-07-23T04:15:19;15.50;99.90
23556;DHT22;11956;53.184;8.578;2022-07-23T04:18:20;15.50;99.90
23556;DHT22;11956;53.184;8.578;2022-07-23T04:21:35;15.60;99.90
23556;DHT22;11956;53.184;8.578;2022-07-23T04:24:37;15.60;99.90
23556;DHT22;11956;53.184;8.578;2022-07-23T04:27:38;15.60;99.90
23556;DHT22;11956;53.184;8.578;2022-07-23T04:30:38;15.60;99.90
23556;DHT22;11956;53.184;8.578;2022-07-23T04:33:41;15.60;99.90
23556;DHT22;11956;53.184;8.578;2022-07-23T04:36:42;15.50;99.90
23556;DHT22;11956;53.184;8.578;2022-07-23T04:39:43;15.50;99.90
23556;DHT22;11956;53.184;8.578;2022-07-23T04:42:46;15.30;99.90
23556;DHT22;11956;53.184;8.578;2022-07-23T04:45:48;15.20;99.90
23556;DHT22;11956;53.184;8.578;2022-07-23T04:48:49;15.20;99.90
23556;DHT22;11956;53.184;8.578;2022-07-23T04:51:51;15.30;99.90
23556;DHT22;11956;53.184;8.578;2022-07-23T04:54:52;15.30;99.90
23556;DHT22;11956;53.184;8.578;2022-07-23T04:57:53;15.40;99.90
23556;DHT22;11956;53.184;8.578;2022-07-23T05:00:54;15.50;99.90
23556;DHT22;11956;53.184;8.578;2022-07-23T05:03:56;15.70;99.90
23556;DHT22;11956;53.184;8.578;2022-07-23T05:06:58;15.80;99.90
23556;DHT22;11956;53.184;8.578;2022-07-23T05:09:59;16.00;99.90
23556;DHT22;11956;53.184;8.578;2022-07-23T05:13:01;16.20;99.90
23556;DHT22;11956;53.184;8.578;2022-07-23T05:16:02;16.30;99.90
23556;DHT22;11956;53.184;8.578;2022-07-23T05:19:03;16.50;99.90
23556;DHT22;11956;53.184;8.578;2022-07-23T05:22:06;16.60;99.90
23556;DHT22;11956;53.184;8.578;2022-07-23T05:25:07;16.90;99.90
23556;DHT22;11956;53.184;8.578;2022-07-23T05:28:09;17.00;99.90
23556;DHT22;11956;53.184;8.578;2022-07-23T05:31:09;17.10;99.90
23556;DHT22;11956;53.184;8.578;2022-07-23T05:34:11;17.40;99.90
23556;DHT22;11956;53.184;8.578;2022-07-23T05:37:12;17.90;99.90
23556;DHT22;11956;53.184;8.578;2022-07-23T05:40:13;18.60;99.90
23556;DHT22;11956;53.184;8.578;2022-07-23T05:43:14;19.00;99.90
23556;DHT22;11956;53.184;8.578;2022-07-23T05:46:16;18.80;99.90
23556;DHT22;11956;53.184;8.578;2022-07-23T05:49:20;18.80;99.90
23556;DHT22;11956;53.184;8.578;2022-07-23T05:52:40;19.10;99.90
23556;DHT22;11956;53.184;8.578;2022-07-23T05:56:00;19.30;99.90
23556;DHT22;11956;53.184;8.578;2022-07-23T05:59:02;19.10;99.90
23556;DHT22;11956;53.184;8.578;2022-07-23T06:02:03;19.00;99.90
23556;DHT22;11956;53.184;8.578;2022-07-23T06:05:05;20.00;99.90
23556;DHT22;11956;53.184;8.578;2022-07-23T06:08:08;21.30;99.90
23556;DHT22;11956;53.184;8.578;2022-07-23T06:11:09;22.40;99.90
23556;DHT22;11956;53.184;8.578;2022-07-23T06:14:10;23.80;99.90
23556;DHT22;11956;53.184;8.578;2022-07-23T06:17:31;25.10;99.90
23556;DHT22;11956;53.184;8.578;2022-07-23T06:20:32;25.70;99.90
23556;DHT22;11956;53.184;8.578;2022-07-23T06:23:33;25.30;99.90
23556;DHT22;11956;53.184;8.578;2022-07-23T06:26:34;25.30;99.90
23556;DHT22;11956;53.184;8.578;2022-07-23T06:29:35;24.70;99.90
23556;DHT22;11956;53.184;8.578;2022-07-23T06:32:36;24.00;99.90
23556;DHT22;11956;53.184;8.578;2022-07-23T06:35:37;22.80;99.90
23556;DHT22;11956;53.184;8.578;2022-07-23T06:38:42;22.10;99.90
23556;DHT22;11956;53.184;8.578;2022-07-23T06:41:43;22.10;99.90
23556;DHT22;11956;53.184;8.578;2022-07-23T06:44:43;22.50;99.90
23556;DHT22;11956;53.184;8.578;2022-07-23T06:47:44;22.50;99.90
23556;DHT22;11956;53.184;8.578;2022-07-23T06:50:45;22.50;99.90
23556;DHT22;11956;53.184;8.578;2022-07-23T06:53:46;21.70;99.90
23556;DHT22;11956;53.184;8.578;2022-07-23T06:56:47;21.40;99.90
23556;DHT22;11956;53.184;8.578;2022-07-23T06:59:49;20.80;99.90
23556;DHT22;11956;53.184;8.578;2022-07-23T07:02:50;20.40;99.90
23556;DHT22;11956;53.184;8.578;2022-07-23T07:05:51;19.70;99.90
23556;DHT22;11956;53.184;8.578;2022-07-23T07:08:53;19.50;99.90
23556;DHT22;11956;53.184;8.578;2022-07-23T07:11:55;19.30;99.90
23556;DHT22;11956;53.184;8.578;2022-07-23T07:14:57;19.10;99.90
23556;DHT22;11956;53.184;8.578;2022-07-23T07:17:57;19.20;99.90
23556;DHT22;11956;53.184;8.578;2022-07-23T07:20:58;19.30;99.90
23556;DHT22;11956;53.184;8.578;2022-07-23T07:23:59;19.00;99.90
23556;DHT22;11956;53.184;8.578;2022-07-23T07:27:00;19.30;99.90
23556;DHT22;11956;53.184;8.578;2022-07-23T07:30:03;19.60;99.90
23556;DHT22;11956;53.184;8.578;2022-07-23T07:33:06;20.00;99.90
23556;DHT22;11956;53.184;8.578;2022-07-23T07:36:07;20.30;99.90
23556;DHT22;11956;53.184;8.578;2022-07-23T07:39:08;20.10;99.90
23556;DHT22;11956;53.184;8.578;2022-07-23T07:42:10;19.80;99.90
23556;DHT22;11956;53.184;8.578;2022-07-23T07:45:11;19.20;99.90
23556;DHT22;11956;53.184;8.578;2022-07-23T07:48:12;19.00;99.90
23556;DHT22;11956;53.184;8.578;2022-07-23T07:51:13;19.20;99.90
23556;DHT22;11956;53.184;8.578;2022-07-23T07:54:14;19.20;99.90
23556;DHT22;11956;53.184;8.578;2022-07-23T07:57:15;19.30;99.90
23556;DHT22;11956;53.184;8.578;2022-07-23T08:00:16;19.60;99.90
23556;DHT22;11956;53.184;8.578;2022-07-23T08:03:17;19.80;99.90
23556;DHT22;11956;53.184;8.578;2022-07-23T08:06:18;20.20;99.90
23556;DHT22;11956;53.184;8.578;2022-07-23T08:09:19;20.50;99.90
23556;DHT22;11956;53.184;8.578;2022-07-23T08:12:20;21.20;99.90
23556;DHT22;11956;53.184;8.578;2022-07-23T08:15:22;21.70;99.90
23556;DHT22;11956;53.184;8.578;2022-07-23T08:18:23;21.90;99.90
23556;DHT22;11956;53.184;8.578;2022-07-23T08:21:24;22.50;99.90
23556;DHT22;11956;53.184;8.578;2022-07-23T08:24:25;22.70;99.90
23556;DHT22;11956;53.184;8.578;2022-07-23T08:27:25;22.70;99.90
23556;DHT22;11956;53.184;8.578;2022-07-23T08:30:27;22.50;99.90
23556;DHT22;11956;53.184;8.578;2022-07-23T08:33:29;22.60;99.90
23556;DHT22;11956;53.184;8.578;2022-07-23T08:36:30;22.80;99.90
23556;DHT22;11956;53.184;8.578;2022-07-23T08:39:32;23.90;99.90
23556;DHT22;11956;53.184;8.578;2022-07-23T08:42:33;24.00;99.90
23556;DHT22;11956;53.184;8.578;2022-07-23T08:45:43;24.50;99.90
23556;DHT22;11956;53.184;8.578;2022-07-23T08:48:48;24.10;99.90
23556;DHT22;11956;53.184;8.578;2022-07-23T08:51:49;23.30;99.90
23556;DHT22;11956;53.184;8.578;2022-07-23T08:54:51;22.40;99.90
23556;DHT22;11956;53.184;8.578;2022-07-23T08:57:53;22.10;99.90
23556;DHT22;11956;53.184;8.578;2022-07-23T09:00:55;21.90;99.90
23556;DHT22;11956;53.184;8.578;2022-07-23T09:03:57;22.30;99.90
23556;DHT22;11956;53.184;8.578;2022-07-23T09:06:58;23.00;99.90
23556;DHT22;11956;53.184;8.578;2022-07-23T09:10:09;23.40;99.90
23556;DHT22;11956;53.184;8.578;2022-07-23T09:13:31;23.60;99.90
23556;DHT22;11956;53.184;8.578;2022-07-23T09:16:51;23.60;99.90
23556;DHT22;11956;53.184;8.578;2022-07-23T09:19:51;23.70;99.90
23556;DHT22;11956;53.184;8.578;2022-07-23T09:23:08;23.10;99.90
23556;DHT22;11956;53.184;8.578;2022-07-23T09:26:21;23.30;99.90
23556;DHT22;11956;53.184;8.578;2022-07-23T09:29:25;24.20;99.90
23556;DHT22;11956;53.184;8.578;2022-07-23T09:32:26;25.60;97.90
23556;DHT22;11956;53.184;8.578;2022-07-23T09:38:50;28.70;93.60
23556;DHT22;11956;53.184;8.578;2022-07-23T09:41:51;29.10;91.60
23556;DHT22;11956;53.184;8.578;2022-07-23T09:44:54;28.80;90.90
23556;DHT22;11956;53.184;8.578;2022-07-23T09:48:16;27.50;92.00
23556;DHT22;11956;53.184;8.578;2022-07-23T09:51:18;26.10;93.90
23556;DHT22;11956;53.184;8.578;2022-07-23T09:54:32;25.30;95.10
23556;DHT22;11956;53.184;8.578;2022-07-23T09:57:37;23.70;97.70
23556;DHT22;11956;53.184;8.578;2022-07-23T10:00:41;22.50;99.80
23556;DHT22;11956;53.184;8.578;2022-07-23T10:03:43;21.70;99.90
23556;DHT22;11956;53.184;8.578;2022-07-23T10:07:21;21.60;99.90
23556;DHT22;11956;53.184;8.578;2022-07-23T10:10:27;21.40;99.90
23556;DHT22;11956;53.184;8.578;2022-07-23T10:13:48;21.50;99.90
23556;DHT22;11956;53.184;8.578;2022-07-23T10:16:49;21.60;99.90
23556;DHT22;11956;53.184;8.578;2022-07-23T10:19:51;21.90;99.90
23556;DHT22;11956;53.184;8.578;2022-07-23T10:23:10;21.70;99.90
23556;DHT22;11956;53.184;8.578;2022-07-23T10:26:55;22.10;99.90
23556;DHT22;11956;53.184;8.578;2022-07-23T10:30:01;22.40;99.90
23556;DHT22;11956;53.184;8.578;2022-07-23T10:43:19;26.60;94.40
23556;DHT22;11956;53.184;8.578;2022-07-23T10:49:36;26.50;94.20
23556;DHT22;11956;53.184;8.578;2022-07-23T10:52:37;28.60;91.50
23556;DHT22;11956;53.184;8.578;2022-07-23T10:59:03;27.00;91.60
23556;DHT22;11956;53.184;8.578;2022-07-23T11:02:21;25.80;93.10
23556;DHT22;11956;53.184;8.578;2022-07-23T11:05:41;24.70;94.70
23556;DHT22;11956;53.184;8.578;2022-07-23T11:12:36;24.20;96.10
23556;DHT22;11956;53.184;8.578;2022-07-23T11:19:05;23.50;97.00
23556;DHT22;11956;53.184;8.578;2022-07-23T11:22:07;23.00;99.30
23556;DHT22;11956;53.184;8.578;2022-07-23T11:25:08;22.60;99.80
23556;DHT22;11956;53.184;8.578;2022-07-23T11:28:10;21.90;99.90
23556;DHT22;11956;53.184;8.578;2022-07-23T11:31:17;21.70;99.90
23556;DHT22;11956;53.184;8.578;2022-07-23T11:34:35;21.90;99.90
23556;DHT22;11956;53.184;8.578;2022-07-23T11:37:39;22.00;99.90
23556;DHT22;11956;53.184;8.578;2022-07-23T11:40:43;22.20;99.90
23556;DHT22;11956;53.184;8.578;2022-07-23T11:43:45;22.30;99.90
23556;DHT22;11956;53.184;8.578;2022-07-23T11:47:03;22.10;99.90
23556;DHT22;11956;53.184;8.578;2022-07-23T11:50:06;22.00;99.90
23556;DHT22;11956;53.184;8.578;2022-07-23T11:53:07;22.30;99.80
23556;DHT22;11956;53.184;8.578;2022-07-23T11:56:11;22.90;99.60
23556;DHT22;11956;53.184;8.578;2022-07-23T11:59:12;22.80;99.00
23556;DHT22;11956;53.184;8.578;2022-07-23T12:02:13;22.60;99.70
23556;DHT22;11956;53.184;8.578;2022-07-23T12:05:20;22.20;99.90
23556;DHT22;11956;53.184;8.578;2022-07-23T12:08:22;22.10;99.90
23556;DHT22;11956;53.184;8.578;2022-07-23T12:11:23;22.20;99.70
23556;DHT22;11956;53.184;8.578;2022-07-23T12:14:24;22.40;99.90
23556;DHT22;11956;53.184;8.578;2022-07-23T12:17:29;22.60;99.90
23556;DHT22;11956;53.184;8.578;2022-07-23T12:20:34;22.30;98.10
23556;DHT22;11956;53.184;8.578;2022-07-23T12:23:48;22.30;97.70
23556;DHT22;11956;53.184;8.578;2022-07-23T12:27:09;22.80;97.30
23556;DHT22;11956;53.184;8.578;2022-07-23T12:30:15;23.30;97.20
23556;DHT22;11956;53.184;8.578;2022-07-23T12:36:37;22.60;96.40
23556;DHT22;11956;53.184;8.578;2022-07-23T12:39:41;22.60;96.70
23556;DHT22;11956;53.184;8.578;2022-07-23T12:42:42;23.00;96.70
23556;DHT22;11956;53.184;8.578;2022-07-23T12:49:25;22.80;97.80
23556;DHT22;11956;53.184;8.578;2022-07-23T12:52:29;22.80;98.00
23556;DHT22;11956;53.184;8.578;2022-07-23T12:55:30;22.90;96.20
23556;DHT22;11956;53.184;8.578;2022-07-23T12:58:50;22.80;95.40
23556;DHT22;11956;53.184;8.578;2022-07-23T13:01:56;23.00;96.00
23556;DHT22;11956;53.184;8.578;2022-07-23T13:05:01;23.00;95.10
23556;DHT22;11956;53.184;8.578;2022-07-23T13:08:02;23.00;94.70
23556;DHT22;11956;53.184;8.578;2022-07-23T13:11:04;22.90;96.00
23556;DHT22;11956;53.184;8.578;2022-07-23T13:14:05;22.90;97.00
23556;DHT22;11956;53.184;8.578;2022-07-23T13:17:06;22.70;96.70
23556;DHT22;11956;53.184;8.578;2022-07-23T13:20:07;22.70;95.90
23556;DHT22;11956;53.184;8.578;2022-07-23T13:23:09;22.90;96.20
23556;DHT22;11956;53.184;8.578;2022-07-23T13:26:09;22.90;96.90
23556;DHT22;11956;53.184;8.578;2022-07-23T13:29:11;22.70;97.00
23556;DHT22;11956;53.184;8.578;2022-07-23T13:32:13;23.10;96.80
23556;DHT22;11956;53.184;8.578;2022-07-23T13:35:15;22.80;98.90
23556;DHT22;11956;53.184;8.578;2022-07-23T13:38:16;22.30;99.60
23556;DHT22;11956;53.184;8.578;2022-07-23T13:41:18;22.00;99.90
23556;DHT22;11956;53.184;8.578;2022-07-23T13:44:19;21.90;99.90
23556;DHT22;11956;53.184;8.578;2022-07-23T13:47:20;22.00;99.90
23556;DHT22;11956;53.184;8.578;2022-07-23T13:50:21;22.30;99.90
23556;DHT22;11956;53.184;8.578;2022-07-23T13:53:23;22.60;99.80
23556;DHT22;11956;53.184;8.578;2022-07-23T13:56:24;22.70;99.40
23556;DHT22;11956;53.184;8.578;2022-07-23T13:59:25;22.30;99.90
23556;DHT22;11956;53.184;8.578;2022-07-23T14:02:26;21.90;99.90
23556;DHT22;11956;53.184;8.578;2022-07-23T14:05:27;21.90;99.90
23556;DHT22;11956;53.184;8.578;2022-07-23T14:08:28;22.50;99.10
23556;DHT22;11956;53.184;8.578;2022-07-23T14:11:29;22.40;99.90
23556;DHT22;11956;53.184;8.578;2022-07-23T14:14:31;22.30;99.90
23556;DHT22;11956;53.184;8.578;2022-07-23T14:17:32;22.30;99.90
23556;DHT22;11956;53.184;8.578;2022-07-23T14:20:34;22.30;99.90
23556;DHT22;11956;53.184;8.578;2022-07-23T14:23:35;22.40;99.90
23556;DHT22;11956;53.184;8.578;2022-07-23T14:26:36;22.20;99.90
23556;DHT22;11956;53.184;8.578;2022-07-23T14:29:36;22.40;99.90
23556;DHT22;11956;53.184;8.578;2022-07-23T14:32:38;22.40;98.50
23556;DHT22;11956;53.184;8.578;2022-07-23T14:35:39;22.30;97.60
23556;DHT22;11956;53.184;8.578;2022-07-23T14:38:40;22.20;97.60
23556;DHT22;11956;53.184;8.578;2022-07-23T14:41:41;22.50;97.80
23556;DHT22;11956;53.184;8.578;2022-07-23T14:44:42;22.50;98.00
23556;DHT22;11956;53.184;8.578;2022-07-23T14:47:43;22.40;97.00
23556;DHT22;11956;53.184;8.578;2022-07-23T14:50:43;22.30;97.20
23556;DHT22;11956;53.184;8.578;2022-07-23T14:53:44;22.30;97.90
23556;DHT22;11956;53.184;8.578;2022-07-23T14:56:46;22.30;97.90
23556;DHT22;11956;53.184;8.578;2022-07-23T14:59:47;22.30;98.00
23556;DHT22;11956;53.184;8.578;2022-07-23T15:02:48;22.40;97.60
23556;DHT22;11956;53.184;8.578;2022-07-23T15:05:49;22.40;97.10
23556;DHT22;11956;53.184;8.578;2022-07-23T15:08:50;22.40;97.60
23556;DHT22;11956;53.184;8.578;2022-07-23T15:11:51;22.30;97.90
23556;DHT22;11956;53.184;8.578;2022-07-23T15:14:52;22.20;97.60
23556;DHT22;11956;53.184;8.578;2022-07-23T15:17:53;22.10;98.00
23556;DHT22;11956;53.184;8.578;2022-07-23T15:20:54;22.10;98.20
23556;DHT22;11956;53.184;8.578;2022-07-23T15:23:55;22.10;97.90
23556;DHT22;11956;53.184;8.578;2022-07-23T15:26:59;22.10;98.50
23556;DHT22;11956;53.184;8.578;2022-07-23T15:30:00;22.00;98.70
23556;DHT22;11956;53.184;8.578;2022-07-23T15:33:01;22.00;98.50
23556;DHT22;11956;53.184;8.578;2022-07-23T15:36:02;22.10;98.80
23556;DHT22;11956;53.184;8.578;2022-07-23T15:39:03;22.20;98.80
23556;DHT22;11956;53.184;8.578;2022-07-23T15:42:04;22.10;98.30
23556;DHT22;11956;53.184;8.578;2022-07-23T15:45:06;21.80;98.70
23556;DHT22;11956;53.184;8.578;2022-07-23T15:48:07;21.70;99.30
23556;DHT22;11956;53.184;8.578;2022-07-23T15:51:08;21.70;98.90
23556;DHT22;11956;53.184;8.578;2022-07-23T15:54:09;21.70;99.40
23556;DHT22;11956;53.184;8.578;2022-07-23T15:57:10;21.70;99.80
23556;DHT22;11956;53.184;8.578;2022-07-23T16:00:18;21.70;99.90
23556;DHT22;11956;53.184;8.578;2022-07-23T16:03:29;21.80;99.60
23556;DHT22;11956;53.184;8.578;2022-07-23T16:06:32;21.90;99.00
23556;DHT22;11956;53.184;8.578;2022-07-23T16:09:33;22.00;99.10
23556;DHT22;11956;53.184;8.578;2022-07-23T16:12:34;21.90;98.70
23556;DHT22;11956;53.184;8.578;2022-07-23T16:15:35;21.80;98.50
23556;DHT22;11956;53.184;8.578;2022-07-23T16:18:37;21.80;98.90
23556;DHT22;11956;53.184;8.578;2022-07-23T16:21:39;21.70;99.20
23556;DHT22;11956;53.184;8.578;2022-07-23T16:24:40;21.60;99.40
23556;DHT22;11956;53.184;8.578;2022-07-23T16:27:40;21.70;99.40
23556;DHT22;11956;53.184;8.578;2022-07-23T16:30:42;21.90;99.60
23556;DHT22;11956;53.184;8.578;2022-07-23T16:33:43;21.90;99.70
23556;DHT22;11956;53.184;8.578;2022-07-23T16:36:44;21.80;99.50
23556;DHT22;11956;53.184;8.578;2022-07-23T16:39:45;21.70;99.60
23556;DHT22;11956;53.184;8.578;2022-07-23T16:42:46;21.60;99.90
23556;DHT22;11956;53.184;8.578;2022-07-23T16:45:47;21.70;99.90
23556;DHT22;11956;53.184;8.578;2022-07-23T16:48:48;21.70;99.90
23556;DHT22;11956;53.184;8.578;2022-07-23T16:51:48;21.80;99.90
23556;DHT22;11956;53.184;8.578;2022-07-23T16:54:49;21.80;99.90
23556;DHT22;11956;53.184;8.578;2022-07-23T16:57:50;21.50;99.90
23556;DHT22;11956;53.184;8.578;2022-07-23T17:00:51;21.50;99.90
23556;DHT22;11956;53.184;8.578;2022-07-23T17:03:52;21.30;99.90
23556;DHT22;11956;53.184;8.578;2022-07-23T17:06:53;21.20;99.90
23556;DHT22;11956;53.184;8.578;2022-07-23T17:09:54;21.20;99.90
23556;DHT22;11956;53.184;8.578;2022-07-23T17:12:55;21.10;99.90
23556;DHT22;11956;53.184;8.578;2022-07-23T17:15:58;21.10;99.90
23556;DHT22;11956;53.184;8.578;2022-07-23T17:18:59;20.90;99.90
23556;DHT22;11956;53.184;8.578;2022-07-23T17:22:00;20.80;99.90
23556;DHT22;11956;53.184;8.578;2022-07-23T17:25:01;20.80;99.90
23556;DHT22;11956;53.184;8.578;2022-07-23T17:28:09;20.70;99.90
23556;DHT22;11956;53.184;8.578;2022-07-23T17:31:10;20.70;99.90
23556;DHT22;11956;53.184;8.578;2022-07-23T17:34:11;20.70;99.90
23556;DHT22;11956;53.184;8.578;2022-07-23T17:37:12;20.60;99.90
23556;DHT22;11956;53.184;8.578;2022-07-23T17:40:14;20.70;99.90
23556;DHT22;11956;53.184;8.578;2022-07-23T17:43:15;20.60;99.90
23556;DHT22;11956;53.184;8.578;2022-07-23T17:46:17;20.50;99.90
23556;DHT22;11956;53.184;8.578;2022-07-23T17:49:18;20.50;99.90
23556;DHT22;11956;53.184;8.578;2022-07-23T17:52:19;20.50;99.90
23556;DHT22;11956;53.184;8.578;2022-07-23T17:55:21;20.40;99.90
23556;DHT22;11956;53.184;8.578;2022-07-23T17:58:22;20.30;99.90
23556;DHT22;11956;53.184;8.578;2022-07-23T18:01:23;20.10;99.90
23556;DHT22;11956;53.184;8.578;2022-07-23T18:04:25;20.10;99.90
23556;DHT22;11956;53.184;8.578;2022-07-23T18:07:26;20.00;99.90
23556;DHT22;11956;53.184;8.578;2022-07-23T18:10:27;20.00;99.90
23556;DHT22;11956;53.184;8.578;2022-07-23T18:13:28;20.00;99.90
23556;DHT22;11956;53.184;8.578;2022-07-23T18:16:29;19.90;99.90
23556;DHT22;11956;53.184;8.578;2022-07-23T18:19:30;19.80;99.90
23556;DHT22;11956;53.184;8.578;2022-07-23T18:22:31;19.70;99.90
23556;DHT22;11956;53.184;8.578;2022-07-23T18:25:32;19.70;99.90
23556;DHT22;11956;53.184;8.578;2022-07-23T18:28:33;19.60;99.90
23556;DHT22;11956;53.184;8.578;2022-07-23T18:31:34;19.50;99.90
23556;DHT22;11956;53.184;8.578;2022-07-23T18:34:35;19.40;99.90
23556;DHT22;11956;53.184;8.578;2022-07-23T18:37:36;19.40;99.90
23556;DHT22;11956;53.184;8.578;2022-07-23T18:40:37;19.30;99.90
23556;DHT22;11956;53.184;8.578;2022-07-23T18:43:40;19.20;99.90
23556;DHT22;11956;53.184;8.578;2022-07-23T18:46:41;19.00;99.90
23556;DHT22;11956;53.184;8.578;2022-07-23T18:49:43;18.90;99.90
23556;DHT22;11956;53.184;8.578;2022-07-23T18:52:44;18.90;99.90
23556;DHT22;11956;53.184;8.578;2022-07-23T18:55:45;18.80;99.90
23556;DHT22;11956;53.184;8.578;2022-07-23T18:58:46;18.70;99.90
23556;DHT22;11956;53.184;8.578;2022-07-23T19:01:47;18.70;99.90
23556;DHT22;11956;53.184;8.578;2022-07-23T19:04:48;18.50;99.90
23556;DHT22;11956;53.184;8.578;2022-07-23T19:07:49;18.40;99.90
23556;DHT22;11956;53.184;8.578;2022-07-23T19:10:50;18.40;99.90
23556;DHT22;11956;53.184;8.578;2022-07-23T19:13:52;18.20;99.90
23556;DHT22;11956;53.184;8.578;2022-07-23T19:16:53;18.20;99.90
23556;DHT22;11956;53.184;8.578;2022-07-23T19:19:54;18.10;99.90
23556;DHT22;11956;53.184;8.578;2022-07-23T19:22:55;18.10;99.90
23556;DHT22;11956;53.184;8.578;2022-07-23T19:25:56;18.00;99.90
23556;DHT22;11956;53.184;8.578;2022-07-23T19:28:57;17.90;99.90
23556;DHT22;11956;53.184;8.578;2022-07-23T19:31:58;17.80;99.90
23556;DHT22;11956;53.184;8.578;2022-07-23T19:34:59;17.80;99.90
23556;DHT22;11956;53.184;8.578;2022-07-23T19:38:00;17.70;99.90
23556;DHT22;11956;53.184;8.578;2022-07-23T19:41:02;17.60;99.90
23556;DHT22;11956;53.184;8.578;2022-07-23T19:44:03;17.50;99.90
23556;DHT22;11956;53.184;8.578;2022-07-23T19:47:04;17.40;99.90